Time;durP1;ratioP1;P1;durP2;ratioP2;P2;SDS_P1;SDS_P2;PMS_P1;PMS_P2;Temp;Humidity;BMP_temperature;BMP_pressure;BME280_temperature;BME280_humidity;BME280_pressure;Samples;Min_cycle;Max_cycle;Signal;HPM_P1;HPM_P2
2023/04/07 00:00:51;;;;;;;7.93;5.55;;;;;;;7.57;42.36;99187.44;5007408;28;20033;-93
2023/04/07 00:03:17;;;;;;;7.03;5.13;;;;;;;7.52;42.01;99187.41;5024572;28;20033;-93
2023/04/07 00:05:42;;;;;;;9.13;6.07;;;;;;;7.41;42.26;99173.91;5007622;28;20028;-93
2023/04/07 00:08:08;;;;;;;11.23;6.03;;;;;;;7.50;42.01;99190.34;5007690;28;20487;-94
2023/04/07 00:10:33;;;;;;;8.60;5.90;;;;;;;7.49;41.94;99178.81;5007081;28;20026;-93
2023/04/07 00:12:59;;;;;;;8.05;5.70;;;;;;;7.56;42.67;99191.22;5007855;28;20017;-94
2023/04/07 00:15:25;;;;;;;7.90;5.30;;;;;;;7.59;41.37;99179.97;5006646;28;20033;-94
2023/04/07 00:17:50;;;;;;;10.00;5.50;;;;;;;7.57;41.73;99190.94;5007944;28;20525;-94
2023/04/07 00:20:16;;;;;;;7.25;5.05;;;;;;;7.50;42.29;99184.97;5008531;28;20029;-93
2023/04/07 00:22:44;;;;;;;8.02;5.35;;;;;;;7.53;41.87;99181.78;5008087;28;20032;-93
2023/04/07 00:25:10;;;;;;;9.23;5.93;;;;;;;7.55;42.17;99185.03;5008292;28;20155;-94
2023/04/07 00:27:36;;;;;;;9.38;5.72;;;;;;;7.63;41.10;99186.44;5008031;28;20120;-94
2023/04/07 00:30:02;;;;;;;13.10;5.68;;;;;;;7.54;41.39;99174.56;5006298;28;20442;-93
2023/04/07 00:32:27;;;;;;;9.00;5.47;;;;;;;7.43;41.96;99174.47;5007143;28;20035;-93
2023/04/07 00:34:53;;;;;;;8.55;5.60;;;;;;;7.49;42.40;99176.16;5007067;28;20028;-94
2023/04/07 00:37:18;;;;;;;9.65;5.25;;;;;;;7.57;42.11;99182.09;5007442;28;20033;-92
2023/04/07 00:39:45;;;;;;;8.27;5.93;;;;;;;7.44;42.45;99177.97;5007956;28;20454;-93
2023/04/07 00:42:10;;;;;;;8.05;5.75;;;;;;;7.41;42.24;99168.56;5007913;28;20025;-94
2023/04/07 00:44:36;;;;;;;9.93;5.70;;;;;;;7.42;41.49;99161.31;5006962;28;20017;-94
2023/04/07 00:47:01;;;;;;;10.98;5.95;;;;;;;7.48;42.39;99169.16;5008755;28;20063;-93
2023/04/07 00:49:30;;;;;;;10.73;5.72;;;;;;;7.32;42.32;99154.00;5009133;28;20045;-93
2023/04/07 00:51:56;;;;;;;8.25;6.13;;;;;;;7.35;42.80;99156.19;5012915;28;20095;-94
2023/04/07 00:54:25;;;;;;;8.63;5.72;;;;;;;7.37;42.72;99151.38;5027161;28;20422;-92
2023/04/07 00:56:51;;;;;;;7.47;5.38;;;;;;;7.28;42.94;99153.72;5010951;28;20088;-93
2023/04/07 00:59:17;;;;;;;7.75;5.38;;;;;;;7.37;43.22;99166.66;5027382;28;20021;-93
2023/04/07 01:01:58;;;;;;;7.60;5.45;;;;;;;7.43;43.49;99176.34;5011474;28;20100;-95
2023/04/07 01:04:31;;;;;;;9.90;6.13;;;;;;;7.31;43.71;99162.28;5028151;28;20025;-94
2023/04/07 01:07:01;;;;;;;6.57;5.18;;;;;;;7.45;42.72;99176.88;5028019;28;20025;-93
2023/04/07 01:09:33;;;;;;;7.90;5.68;;;;;;;7.41;42.93;99170.44;5011802;28;20024;-93
2023/04/07 01:12:06;;;;;;;9.60;5.95;;;;;;;7.48;42.82;99176.38;5028183;28;20092;-93
2023/04/07 01:14:37;;;;;;;9.95;5.60;;;;;;;7.53;42.52;99172.94;5027422;28;20028;-94
2023/04/07 01:17:03;;;;;;;8.40;5.72;;;;;;;7.48;41.74;99173.72;5026681;28;20506;-94
2023/04/07 01:20:09;;;;;;;7.70;5.60;;;;;;;7.46;41.90;99178.50;5009842;28;20033;-93
2023/04/07 01:22:50;;;;;;;7.95;5.55;;;;;;;7.38;42.02;99169.06;5026918;28;20025;-95
2023/04/07 01:25:43;;;;;;;9.20;5.75;;;;;;;7.43;42.98;99177.16;5044377;28;20016;-93
2023/04/07 01:28:36;;;;;;;8.60;5.93;;;;;;;7.38;43.31;99178.97;5042257;28;20027;-94
2023/04/07 01:31:02;;;;;;;11.00;6.13;;;;;;;7.25;42.55;99161.44;5042983;28;20048;-93
2023/04/07 01:33:27;;;;;;;8.00;5.57;;;;;;;7.26;42.81;99166.53;5010522;28;20029;-93
2023/04/07 01:35:53;;;;;;;10.85;6.15;;;;;;;7.20;42.26;99158.69;5010056;28;20086;-93
2023/04/07 01:38:18;;;;;;;8.27;5.45;;;;;;;7.29;41.82;99159.88;5010546;28;20028;-92
2023/04/07 01:40:44;;;;;;;9.23;5.75;;;;;;;7.20;41.96;99154.16;5008846;28;20084;-93
2023/04/07 01:43:09;;;;;;;12.23;6.10;;;;;;;7.20;42.18;99156.84;5011722;28;20021;-93
2023/04/07 01:45:35;;;;;;;8.38;5.78;;;;;;;7.23;42.62;99158.19;5011329;28;20029;-87
2023/04/07 01:48:00;;;;;;;8.38;5.88;;;;;;;7.18;42.49;99152.75;5012854;28;20021;-88
2023/04/07 01:50:26;;;;;;;9.25;6.68;;;;;;;7.17;41.66;99148.47;5004488;28;20499;-88
2023/04/07 01:52:52;;;;;;;9.60;6.18;;;;;;;7.13;42.37;99145.50;4987663;28;20021;-88
2023/04/07 01:55:17;;;;;;;9.02;6.03;;;;;;;7.10;42.33;99156.72;4987530;28;20028;-88
2023/04/07 01:57:43;;;;;;;10.02;6.85;;;;;;;7.12;42.72;99137.69;4988515;28;20403;-89
2023/04/07 02:00:08;;;;;;;8.73;6.35;;;;;;;6.99;43.33;99138.91;4986827;28;20530;-87
2023/04/07 02:02:35;;;;;;;11.32;6.72;;;;;;;6.84;43.91;99163.63;5020009;28;20025;-87
2023/04/07 02:05:04;;;;;;;11.13;5.70;;;;;;;6.72;45.03;99145.00;4987076;28;20028;-87
2023/04/07 02:07:54;;;;;;;11.38;6.88;;;;;;;6.65;45.14;99141.72;5004305;28;20069;-86
2023/04/07 02:10:21;;;;;;;9.02;6.43;;;;;;;6.64;45.17;99145.44;5020084;28;20043;-86
2023/04/07 02:12:46;;;;;;;11.45;6.00;;;;;;;6.59;45.67;99146.19;5004730;28;20012;-87
2023/04/07 02:15:12;;;;;;;10.13;6.32;;;;;;;6.64;45.43;99148.94;5003068;28;20495;-87
2023/04/07 02:17:39;;;;;;;8.35;6.40;;;;;;;6.59;45.97;99146.19;4988147;28;20021;-88
2023/04/07 02:20:08;;;;;;;9.20;5.88;;;;;;;6.65;46.29;99141.72;5003742;28;20021;-85
2023/04/07 02:22:33;;;;;;;8.18;6.13;;;;;;;6.64;46.45;99132.91;4987519;28;20036;-87
2023/04/07 02:24:59;;;;;;;10.05;6.50;;;;;;;6.72;46.59;99139.66;4987371;28;20029;-88
2023/04/07 02:27:24;;;;;;;12.13;6.70;;;;;;;6.55;47.01;99133.56;4987196;28;20446;-87
2023/04/07 02:29:50;;;;;;;7.57;6.10;;;;;;;6.59;46.93;99140.84;4987022;28;20500;-87
2023/04/07 02:32:16;;;;;;;10.82;6.93;;;;;;;6.51;47.39;99133.25;4986913;28;20021;-88
2023/04/07 02:34:44;;;;;;;11.27;6.65;;;;;;;6.35;47.98;99136.78;4987355;28;20407;-88
2023/04/07 02:37:10;;;;;;;12.48;7.72;;;;;;;6.37;48.50;99142.69;4986251;28;20407;-88
2023/04/07 02:39:35;;;;;;;11.63;7.22;;;;;;;6.33;48.22;99146.91;5003847;28;20018;-87
2023/04/07 02:42:00;;;;;;;9.55;6.22;;;;;;;6.15;47.67;99145.31;4987103;28;20021;-88
2023/04/07 02:44:26;;;;;;;9.80;6.35;;;;;;;6.16;47.53;99147.72;4987036;28;20029;-88
2023/04/07 02:46:52;;;;;;;10.32;6.32;;;;;;;6.18;48.78;99158.19;5003600;28;20021;-88
2023/04/07 02:49:17;;;;;;;11.00;6.05;;;;;;;6.14;48.40;99159.72;5012437;28;20045;-88
2023/04/07 02:51:45;;;;;;;9.60;6.60;;;;;;;6.13;48.67;99147.44;5006521;28;20475;-88
2023/04/07 02:54:11;;;;;;;10.13;6.10;;;;;;;6.10;48.33;99139.88;5006437;28;20025;-88
2023/04/07 02:56:36;;;;;;;10.85;5.68;;;;;;;6.24;48.21;99149.19;5006251;28;20052;-88
2023/04/07 02:59:02;;;;;;;9.93;6.53;;;;;;;6.28;48.54;99161.81;5005994;28;20024;-89
2023/04/07 03:01:27;;;;;;;9.68;6.18;;;;;;;6.33;48.55;99150.41;5006467;28;20036;-88
2023/04/07 03:03:52;;;;;;;7.90;6.07;;;;;;;6.38;49.13;99166.50;5005848;28;20036;-88
2023/04/07 03:06:18;;;;;;;8.85;6.30;;;;;;;6.34;49.19;99169.94;5005812;28;20576;-88
2023/04/07 03:08:43;;;;;;;11.35;6.70;;;;;;;6.31;48.56;99160.53;5022154;28;20021;-87
2023/04/07 03:11:09;;;;;;;10.05;6.53;;;;;;;6.29;49.46;99165.31;5004571;28;20089;-88
2023/04/07 03:13:35;;;;;;;9.02;6.50;;;;;;;6.38;48.42;99166.50;5005322;28;20028;-88
2023/04/07 03:16:00;;;;;;;10.50;6.07;;;;;;;6.30;48.53;99139.38;5006195;28;20021;-88
2023/04/07 03:18:26;;;;;;;9.93;6.75;;;;;;;6.47;48.58;99169.56;5005797;28;20021;-88
2023/04/07 03:20:54;;;;;;;10.98;6.90;;;;;;;6.48;47.71;99165.84;5001977;28;20460;-88
2023/04/07 03:23:19;;;;;;;10.85;6.55;;;;;;;6.51;47.18;99160.00;5004694;28;20029;-87
2023/04/07 03:25:44;;;;;;;10.90;7.35;;;;;;;6.46;47.74;99157.25;5005262;28;20025;-87
2023/04/07 03:28:10;;;;;;;10.02;6.20;;;;;;;6.36;49.55;99154.44;5003430;28;20033;-87
2023/04/07 03:30:36;;;;;;;14.35;7.05;;;;;;;6.32;49.76;99161.34;5006890;28;20405;-87
2023/04/07 03:33:01;;;;;;;16.45;7.82;;;;;;;6.20;50.44;99151.53;5003827;28;20041;-87
2023/04/07 03:35:27;;;;;;;15.07;8.18;;;;;;;6.15;50.51;99148.78;5000637;28;20033;-87
2023/04/07 03:37:52;;;;;;;12.93;6.90;;;;;;;6.09;51.11;99171.16;5004573;28;20498;-87
2023/04/07 03:40:18;;;;;;;13.93;7.60;;;;;;;6.13;51.10;99176.84;4997264;28;20095;-88
2023/04/07 03:42:45;;;;;;;13.38;8.35;;;;;;;5.95;52.12;99162.66;4984131;28;20022;-87
2023/04/07 03:45:11;;;;;;;17.25;7.28;;;;;;;6.06;51.19;99185.81;5001715;28;20554;-88
2023/04/07 03:47:36;;;;;;;17.20;7.82;;;;;;;6.04;50.90;99184.47;5039531;28;20029;-94
2023/04/07 03:50:02;;;;;;;26.42;14.93;;;;;;;6.07;49.52;99191.97;5008825;28;20489;-94
2023/04/07 03:52:27;;;;;;;14.07;9.10;;;;;;;5.96;49.98;99188.34;5011373;28;20442;-92
2023/04/07 03:54:53;;;;;;;11.70;7.70;;;;;;;5.99;50.28;99187.03;5010271;28;20025;-93
2023/04/07 03:57:18;;;;;;;11.82;7.88;;;;;;;5.88;50.31;99197.53;5008353;28;20033;-93
2023/04/07 03:59:45;;;;;;;13.15;8.77;;;;;;;5.77;50.49;99201.09;5009160;28;20041;-95
2023/04/07 04:02:11;;;;;;;15.57;8.35;;;;;;;5.64;51.71;99196.03;5028180;28;20059;-96
2023/04/07 04:04:37;;;;;;;17.58;9.18;;;;;;;5.69;52.71;99200.69;5026722;28;20037;-95
2023/04/07 04:07:02;;;;;;;15.70;9.73;;;;;;;5.66;53.74;99193.94;5013308;28;20041;-94
2023/04/07 04:09:28;;;;;;;22.95;9.98;;;;;;;5.69;53.11;99193.47;5009015;28;20020;-95
2023/04/07 04:11:55;;;;;;;15.55;8.63;;;;;;;5.64;52.39;99180.00;5005840;28;20109;-88
2023/04/07 04:14:20;;;;;;;18.95;9.15;;;;;;;5.62;52.30;99182.94;5003263;28;20022;-88
2023/04/07 04:16:46;;;;;;;14.50;8.60;;;;;;;5.66;53.31;99189.41;5021819;28;20513;-95
2023/04/07 04:19:11;;;;;;;19.15;9.27;;;;;;;5.61;55.83;99194.66;5009636;28;20025;-95
2023/04/07 04:21:37;;;;;;;17.63;9.55;;;;;;;5.79;55.37;99201.66;5007103;28;20017;-93
2023/04/07 04:24:03;;;;;;;13.32;8.93;;;;;;;5.77;54.66;99201.09;5024563;28;20017;-92
2023/04/07 04:26:29;;;;;;;24.02;10.38;;;;;;;5.84;55.54;99204.41;5012616;28;20029;-94
2023/04/07 04:28:55;;;;;;;17.88;9.38;;;;;;;6.02;55.01;99206.06;5030278;28;20041;-94
2023/04/07 04:31:20;;;;;;;19.10;10.18;;;;;;;6.09;55.77;99216.59;5015001;28;20025;-95
2023/04/07 04:33:46;;;;;;;23.65;11.55;;;;;;;6.13;55.20;99207.03;5014252;28;20032;-94
2023/04/07 04:36:12;;;;;;;17.98;10.27;;;;;;;6.34;54.36;99223.41;5014304;28;20028;-95
2023/04/07 04:38:37;;;;;;;19.13;9.57;;;;;;;6.34;54.24;99212.72;5012743;28;20085;-93
2023/04/07 04:41:06;;;;;;;23.77;10.27;;;;;;;6.30;54.27;99211.56;5014507;28;20020;-92
2023/04/07 04:43:32;;;;;;;19.10;10.57;;;;;;;6.16;54.12;99206.53;5013276;28;20072;-92
2023/04/07 04:45:57;;;;;;;19.75;9.18;;;;;;;6.08;54.23;99188.25;5027829;28;20025;-94
2023/04/07 04:48:23;;;;;;;23.13;11.55;;;;;;;6.09;55.16;99199.75;5013041;28;20029;-92
2023/04/07 04:50:49;;;;;;;25.13;11.35;;;;;;;6.24;54.76;99211.47;5014877;28;20061;-91
2023/04/07 04:53:14;;;;;;;23.17;12.40;;;;;;;6.44;55.10;99220.88;5012296;28;20032;-92
2023/04/07 04:55:42;;;;;;;22.63;11.75;;;;;;;6.46;54.10;99205.41;5013511;28;20025;-93
2023/04/07 04:58:08;;;;;;;17.98;9.88;;;;;;;6.63;53.73;99218.75;5012281;28;20483;-92
2023/04/07 05:00:33;;;;;;;19.23;9.30;;;;;;;6.83;48.99;99234.28;5009151;28;20034;-93
2023/04/07 05:02:59;;;;;;;11.98;7.45;;;;;;;6.91;48.42;99225.00;5012141;28;20047;-91
2023/04/07 05:05:25;;;;;;;12.20;7.57;;;;;;;7.12;47.10;99244.78;5014163;28;20032;-94
2023/04/07 05:07:50;;;;;;;12.20;6.72;;;;;;;7.03;46.22;99226.50;5008430;28;20029;-92
2023/04/07 05:10:16;;;;;;;13.18;7.60;;;;;;;7.12;46.81;99234.91;5007527;28;20030;-93
2023/04/07 05:12:41;;;;;;;15.48;9.05;;;;;;;7.19;47.80;99232.06;5013281;28;20067;-93
2023/04/07 05:15:10;;;;;;;15.68;9.82;;;;;;;7.13;47.18;99225.00;5011903;28;20029;-94
2023/04/07 05:17:39;;;;;;;13.52;7.78;;;;;;;7.04;47.59;99216.63;5017542;28;20044;-95
2023/04/07 05:20:05;;;;;;;13.15;7.53;;;;;;;7.25;46.52;99231.84;5014847;28;20029;-95
2023/04/07 05:22:34;;;;;;;12.63;9.25;;;;;;;7.49;46.49;99253.00;5012562;28;20029;-95
2023/04/07 05:25:02;;;;;;;15.32;7.18;;;;;;;7.41;46.92;99245.44;5029942;28;20029;-94
2023/04/07 05:27:27;;;;;;;13.80;8.30;;;;;;;7.38;46.51;99237.88;5013361;28;20005;-95
2023/04/07 05:29:54;;;;;;;11.45;7.70;;;;;;;7.32;46.77;99234.34;5013549;28;20029;-94
2023/04/07 05:32:19;;;;;;;12.88;6.97;;;;;;;7.34;45.43;99221.50;5016795;28;20036;-96
2023/04/07 05:34:50;;;;;;;15.63;7.45;;;;;;;7.61;44.48;99247.50;5018661;28;20033;-93
2023/04/07 05:37:21;;;;;;;13.32;7.70;;;;;;;7.73;43.71;99244.69;5047149;28;20053;-92
2023/04/07 05:39:46;;;;;;;13.90;7.25;;;;;;;7.53;42.86;99237.25;5010968;28;20480;-92
2023/04/07 05:42:15;;;;;;;13.90;7.78;;;;;;;7.68;41.55;99248.94;5032723;28;20036;-95
2023/04/07 05:44:41;;;;;;;12.15;6.30;;;;;;;7.58;42.23;99230.06;5038784;28;20035;-94
2023/04/07 05:47:07;;;;;;;11.70;6.13;;;;;;;7.53;42.44;99256.81;5015135;28;20033;-93
2023/04/07 05:49:39;;;;;;;9.80;7.57;;;;;;;7.53;42.18;99253.31;5015014;28;20057;-95
2023/04/07 05:52:05;;;;;;;12.90;7.47;;;;;;;7.52;43.00;99244.47;5014559;28;20041;-95
2023/04/07 05:54:31;;;;;;;9.75;6.35;;;;;;;7.65;43.51;99265.50;5018567;28;20033;-94
2023/04/07 05:57:00;;;;;;;10.10;7.00;;;;;;;7.72;43.90;99261.81;5011964;28;20025;-94
2023/04/07 05:59:25;;;;;;;11.02;6.93;;;;;;;7.79;43.66;99262.44;5024240;28;20021;-93
2023/04/07 06:01:51;;;;;;;9.82;6.40;;;;;;;7.76;42.20;99261.09;5008555;28;20036;-92
2023/04/07 06:04:17;;;;;;;12.73;7.47;;;;;;;7.75;42.18;99253.28;5012877;28;20029;-94
2023/04/07 06:06:42;;;;;;;13.35;6.75;;;;;;;7.98;40.83;99266.38;5010264;28;20399;-89
2023/04/07 06:09:08;;;;;;;10.35;7.00;;;;;;;8.17;40.55;99269.50;5006891;28;20033;-91
2023/04/07 06:11:33;;;;;;;11.70;7.38;;;;;;;8.04;41.97;99257.31;4998042;28;20041;-89
2023/04/07 06:14:02;;;;;;;11.50;7.35;;;;;;;7.86;41.78;99244.28;5010371;28;20037;-96
2023/04/07 06:16:28;;;;;;;19.17;11.07;;;;;;;8.23;40.80;99276.53;5029064;28;20022;-93
2023/04/07 06:18:56;;;;;;;11.50;8.00;;;;;;;8.29;40.92;99269.34;5017074;28;20096;-96
2023/04/07 06:21:26;;;;;;;10.00;7.38;;;;;;;8.24;41.31;99277.34;5017936;28;20019;-94
2023/04/07 06:24:16;;;;;;;12.05;7.22;;;;;;;8.18;40.77;99249.66;5038693;28;20051;-96
2023/04/07 06:26:42;;;;;;;15.27;7.90;;;;;;;8.35;41.40;99275.56;5021011;28;20038;-96
2023/04/07 06:29:19;;;;;;;11.63;7.10;;;;;;;8.51;40.46;99266.59;5010718;28;20454;-93
2023/04/07 06:31:47;;;;;;;15.63;6.88;;;;;;;8.42;40.28;99246.66;5060296;23;20046;-92
2023/04/07 06:34:15;;;;;;;12.93;7.47;;;;;;;8.62;39.30;99256.72;5017637;28;20028;-92
2023/04/07 06:36:41;;;;;;;11.57;7.80;;;;;;;8.63;37.55;99239.56;5001776;28;20056;-91
2023/04/07 06:39:06;;;;;;;10.73;6.88;;;;;;;8.86;37.58;99267.88;4977140;28;20133;-91
2023/04/07 06:41:37;;;;;;;14.73;7.13;;;;;;;8.84;38.45;99252.03;4993878;28;20083;-95
2023/04/07 06:44:04;;;;;;;14.85;7.45;;;;;;;8.93;37.68;99252.34;5048134;28;20109;-95
2023/04/07 06:46:30;;;;;;;12.13;7.93;;;;;;;9.17;37.94;99268.03;5012782;28;20037;-93
2023/04/07 06:48:56;;;;;;;14.70;7.10;;;;;;;9.20;36.53;99249.53;5008956;28;20024;-86
2023/04/07 06:51:22;;;;;;;11.73;6.45;;;;;;;9.29;36.16;99253.31;4985694;28;20041;-86
2023/04/07 06:53:52;;;;;;;11.77;6.88;;;;;;;9.36;36.58;99263.84;4992380;28;20100;-87
2023/04/07 06:56:19;;;;;;;9.43;5.90;;;;;;;9.58;35.49;99269.00;5000656;28;20025;-85
2023/04/07 06:58:45;;;;;;;14.02;7.35;;;;;;;9.74;34.29;99275.25;4989496;28;20103;-85
2023/04/07 07:01:11;;;;;;;8.63;6.05;;;;;;;9.65;33.88;99260.69;4968827;28;20535;-86
2023/04/07 07:03:38;;;;;;;14.73;6.10;;;;;;;9.83;33.29;99273.63;5028941;28;20032;-87
2023/04/07 07:06:04;;;;;;;12.60;7.68;;;;;;;9.97;33.66;99265.88;4995217;28;20033;-87
2023/04/07 07:08:30;;;;;;;13.20;6.05;;;;;;;10.06;33.28;99275.00;4987078;28;20038;-86
2023/04/07 07:10:57;;;;;;;9.43;6.07;;;;;;;9.98;32.73;99267.50;4985293;28;20412;-87
2023/04/07 07:13:25;;;;;;;7.47;5.03;;;;;;;10.15;32.58;99282.56;4969203;28;20057;-87
2023/04/07 07:15:54;;;;;;;8.25;6.15;;;;;;;10.08;32.69;99255.94;4968862;28;20026;-89
2023/04/07 07:18:20;;;;;;;9.93;6.07;;;;;;;10.16;32.21;99247.31;4997563;28;20072;-88
2023/04/07 07:20:51;;;;;;;13.48;6.60;;;;;;;10.23;32.93;99274.78;5001087;28;20116;-88
2023/04/07 07:23:18;;;;;;;11.10;5.82;;;;;;;10.35;32.65;99279.13;4994207;28;20034;-92
2023/04/07 07:25:44;;;;;;;12.77;6.53;;;;;;;10.41;32.52;99278.03;4990986;28;20419;-94
2023/04/07 07:28:09;;;;;;;12.18;6.00;;;;;;;10.43;31.54;99265.13;4968729;28;20054;-96
2023/04/07 07:30:35;;;;;;;8.85;5.30;;;;;;;10.47;30.90;99248.16;4976252;28;20057;-94
2023/04/07 07:33:01;;;;;;;10.60;6.55;;;;;;;10.71;30.88;99277.22;4991305;28;20094;-95
2023/04/07 07:35:36;;;;;;;6.40;4.80;;;;;;;10.54;30.94;99269.41;5136420;23;20056;-95
2023/04/07 07:38:09;;;;;;;6.82;5.40;;;;;;;10.77;31.02;99284.22;5066111;28;20052;-95
2023/04/07 07:40:35;;;;;;;24.30;18.67;;;;;;;10.56;31.80;99248.41;5053056;28;20403;-96
2023/04/07 07:43:02;;;;;;;11.43;6.97;;;;;;;10.64;30.99;99266.69;5034251;28;20024;-96
2023/04/07 07:45:28;;;;;;;8.70;5.70;;;;;;;10.67;31.00;99258.09;5044746;28;20025;-94
2023/04/07 07:47:53;;;;;;;6.70;4.82;;;;;;;10.77;31.04;99264.53;5025991;28;20056;-95
2023/04/07 07:50:19;;;;;;;13.05;6.30;;;;;;;10.77;31.70;99259.16;5010976;28;20022;-94
2023/04/07 07:52:48;;;;;;;13.45;6.30;;;;;;;10.90;30.73;99259.41;5027945;28;20013;-96
2023/04/07 07:55:17;;;;;;;8.00;5.25;;;;;;;11.13;30.06;99282.22;5017205;28;20029;-94
2023/04/07 07:57:43;;;;;;;6.72;4.53;;;;;;;11.13;30.08;99273.34;5027945;28;20037;-96
2023/04/07 08:00:09;;;;;;;10.32;5.78;;;;;;;11.49;30.26;99297.47;5028938;28;20025;-93
2023/04/07 08:02:35;;;;;;;8.57;4.50;;;;;;;11.46;29.73;99277.25;5009944;28;20033;-94
2023/04/07 08:05:05;;;;;;;6.63;4.75;;;;;;;11.65;28.82;99274.75;5011115;28;20101;-94
2023/04/07 08:07:32;;;;;;;7.93;5.07;;;;;;;11.73;29.28;99289.53;5027214;28;20029;-96
2023/04/07 08:10:36;;;;;;;9.00;4.22;;;;;;;11.40;28.72;99294.53;5016701;28;20041;-96
2023/04/07 08:13:01;;;;;;;14.60;9.32;;;;;;;11.52;29.65;99268.06;4989406;28;20038;-92
2023/04/07 08:15:31;;;;;;;9.88;4.97;;;;;;;11.78;30.10;99294.09;5004563;28;20045;-93
2023/04/07 08:17:57;;;;;;;7.80;4.32;;;;;;;11.59;28.11;99258.88;5001710;28;20067;-95
2023/04/07 08:20:22;;;;;;;9.55;4.30;;;;;;;11.91;28.17;99285.41;5013348;28;20014;-94
2023/04/07 08:22:48;;;;;;;6.93;4.55;;;;;;;11.73;28.19;99260.66;5031220;28;20175;-94
2023/04/07 08:25:13;;;;;;;5.40;3.85;;;;;;;12.03;28.09;99293.97;5030769;28;20047;-90
2023/04/07 08:27:43;;;;;;;8.35;4.60;;;;;;;12.00;29.06;99277.56;5147802;23;20064;-94
2023/04/07 08:30:12;;;;;;;7.97;3.97;;;;;;;11.67;27.84;99256.38;5045157;28;20048;-95
2023/04/07 08:33:15;;;;;;;5.45;3.80;;;;;;;11.73;27.59;99241.00;5037228;28;20033;-96
2023/04/07 08:39:24;;;;;;;6.25;4.15;;;;;;;11.94;28.57;99265.97;5063171;28;20819;-92
2023/04/07 08:41:51;;;;;;;9.88;4.90;;;;;;;11.93;27.61;99254.38;5010842;28;20041;-94
2023/04/07 08:44:17;;;;;;;9.70;4.50;;;;;;;11.77;27.58;99258.22;5010743;28;20034;-94
2023/04/07 08:46:45;;;;;;;6.55;4.15;;;;;;;11.73;28.36;99239.09;5013139;28;20022;-95
2023/04/07 08:49:17;;;;;;;9.52;4.85;;;;;;;11.86;29.35;99269.22;5016092;28;20030;-96
2023/04/07 08:51:49;;;;;;;9.07;5.15;;;;;;;11.80;29.16;99252.25;5011331;28;20507;-96
2023/04/07 08:54:21;;;;;;;9.32;5.43;;;;;;;11.77;30.72;99250.13;5017095;23;20639;-92
2023/04/07 08:56:55;;;;;;;8.63;5.78;;;;;;;11.80;32.82;99275.75;4958153;28;20042;-95
2023/04/07 08:59:25;;;;;;;10.10;6.43;;;;;;;11.67;33.83;99272.56;4973516;28;20101;-95
2023/04/07 09:01:51;;;;;;;9.80;7.18;;;;;;;11.21;34.21;99263.91;4958576;28;20010;-94
2023/04/07 09:04:16;;;;;;;8.32;5.60;;;;;;;10.83;34.53;99248.13;4969592;28;20065;-96
2023/04/07 09:06:45;;;;;;;12.20;7.15;;;;;;;11.06;34.99;99279.03;4982465;28;20034;-94
2023/04/07 09:09:11;;;;;;;8.57;5.80;;;;;;;11.00;35.04;99300.84;4973524;28;20086;-94
2023/04/07 09:11:38;;;;;;;9.30;5.55;;;;;;;10.98;35.36;99268.81;4972170;28;20041;-90
2023/04/07 09:14:04;;;;;;;9.63;6.10;;;;;;;11.18;36.12;99277.91;4972911;28;20030;-95
2023/04/07 09:16:31;;;;;;;9.60;6.65;;;;;;;11.23;35.14;99269.81;4978033;28;20033;-95
2023/04/07 09:18:57;;;;;;;8.75;6.15;;;;;;;11.40;35.01;99272.16;4977983;28;20069;-95
2023/04/07 09:21:23;;;;;;;13.10;7.97;;;;;;;11.32;35.39;99268.94;4973579;28;20021;-92
2023/04/07 09:23:49;;;;;;;11.52;6.55;;;;;;;11.49;34.82;99294.78;4957882;28;20031;-94
2023/04/07 09:26:26;;;;;;;10.98;6.50;;;;;;;11.05;35.72;99273.91;4977500;28;20023;-93
2023/04/07 09:28:56;;;;;;;7.43;4.97;;;;;;;11.28;34.97;99294.03;4989404;28;20041;-94
2023/04/07 09:31:27;;;;;;;;;;;;;;;11.17;35.01;99304.06;4986923;28;20089;-95
2023/04/07 09:34:31;;;;;;;9.25;5.78;;;;;;;11.22;35.06;99289.75;4974462;28;19922;-93
2023/04/07 09:37:05;;;;;;;10.38;6.78;;;;;;;11.39;34.66;99292.13;4959281;29;20158;-94
2023/04/07 09:39:52;;;;;;;11.50;6.18;;;;;;;11.29;35.03;99274.09;4940484;29;20039;-95
2023/04/07 09:42:19;;;;;;;8.68;6.10;;;;;;;11.49;35.00;99297.47;4969850;28;20095;-88
2023/04/07 09:44:45;;;;;;;9.43;5.40;;;;;;;11.24;34.41;99261.44;4930469;29;20079;-89
2023/04/07 09:47:16;;;;;;;10.43;6.97;;;;;;;11.27;35.31;99260.09;4947851;29;20027;-94
2023/04/07 09:49:51;;;;;;;8.82;6.00;;;;;;;11.20;35.42;99260.38;4952471;28;20216;-87
2023/04/07 09:52:19;;;;;;;11.70;6.30;;;;;;;11.32;35.16;99260.88;4927215;29;20031;-88
2023/04/07 09:54:45;;;;;;;9.40;5.80;;;;;;;11.22;35.02;99281.66;4929732;28;20524;-86
2023/04/07 09:57:11;;;;;;;8.77;6.25;;;;;;;11.20;35.21;99263.06;4946063;28;20040;-87
2023/04/07 09:59:44;;;;;;;11.88;6.18;;;;;;;11.38;35.33;99263.56;4968046;28;20049;-89
2023/04/07 10:02:10;;;;;;;8.13;5.95;;;;;;;11.50;34.21;99253.25;4934321;28;20071;-88
2023/04/07 10:04:39;;;;;;;9.30;5.88;;;;;;;11.96;33.92;99288.09;4956498;28;20027;-88
2023/04/07 10:09:41;;;;;;;8.88;5.53;;;;;;;12.14;33.36;99289.31;5076899;23;20053;-93
2023/04/07 10:14:45;;;;;;;7.97;5.57;;;;;;;12.24;32.86;99293.81;5086271;23;20053;-95
2023/04/07 10:17:13;;;;;;;10.95;5.40;;;;;;;11.90;32.11;99265.72;5001291;28;20037;-95
2023/04/07 10:19:39;;;;;;;13.32;5.68;;;;;;;12.14;32.21;99294.72;5214561;23;20089;-92
2023/04/07 10:22:10;;;;;;;8.15;5.47;;;;;;;12.33;32.40;99290.25;4996892;28;20197;-96
2023/04/07 10:25:00;;;;;;;8.38;5.47;;;;;;;12.45;32.84;99279.09;5007462;28;20041;-93
2023/04/07 10:27:49;;;;;;;13.07;6.50;;;;;;;12.56;32.58;99262.81;4982154;28;20385;-93
2023/04/07 10:30:22;;;;;;;8.40;5.55;;;;;;;12.51;33.01;99280.66;4993243;28;20022;-95
2023/04/07 10:32:57;;;;;;;10.30;5.53;;;;;;;12.64;32.44;99264.91;5007568;28;20045;-94
2023/04/07 10:35:27;;;;;;;7.88;5.15;;;;;;;12.53;32.38;99285.75;5024602;28;20061;-91
2023/04/07 10:38:12;;;;;;;9.02;5.60;;;;;;;12.68;32.83;99288.34;4991643;28;20037;-91
2023/04/07 10:40:41;;;;;;;9.02;5.53;;;;;;;12.44;32.85;99257.78;5026501;28;20033;-92
2023/04/07 10:43:09;;;;;;;10.20;5.82;;;;;;;12.77;32.51;99285.03;4995362;28;20041;-94
2023/04/07 10:45:47;;;;;;;9.85;5.85;;;;;;;12.92;32.53;99288.38;5013526;28;20010;-89
2023/04/07 10:48:16;;;;;;;13.25;6.65;;;;;;;12.73;33.00;99274.78;5021603;28;20040;-92
2023/04/07 10:50:43;;;;;;;9.13;6.03;;;;;;;12.89;32.27;99271.94;4979802;28;20037;-91
2023/04/07 10:53:43;;;;;;;9.60;5.80;;;;;;;12.99;32.04;99301.56;4992481;28;20034;-94
2023/04/07 10:56:09;;;;;;;8.48;5.45;;;;;;;12.82;31.90;99260.66;5016463;28;20025;-93
2023/04/07 10:58:36;;;;;;;13.20;7.35;;;;;;;12.92;32.02;99280.25;4977002;28;20104;-93
2023/04/07 11:01:17;;;;;;;8.35;5.28;;;;;;;13.05;32.13;99295.00;4991237;28;20029;-92
2023/04/07 11:03:54;;;;;;;8.50;5.35;;;;;;;12.93;31.83;99275.69;5007468;28;20050;-94
2023/04/07 11:06:20;;;;;;;8.20;5.68;;;;;;;13.04;31.56;99293.38;4977481;28;20014;-92
2023/04/07 11:08:50;;;;;;;8.50;5.60;;;;;;;12.73;31.56;99269.38;4994064;28;20109;-94
2023/04/07 11:11:38;;;;;;;10.07;5.60;;;;;;;12.65;31.57;99264.59;4992167;28;20031;-93
2023/04/07 11:14:05;;;;;;;9.63;5.90;;;;;;;12.53;31.99;99261.47;4987813;28;20111;-93
2023/04/07 11:16:38;;;;;;;7.93;5.65;;;;;;;12.74;31.35;99273.69;4997723;28;20041;-96
2023/04/07 11:19:05;;;;;;;7.28;5.20;;;;;;;12.90;31.22;99265.44;4994969;28;20062;-96
2023/04/07 11:21:35;;;;;;;8.60;5.15;;;;;;;12.99;30.80;99263.72;4979510;28;20025;-95
2023/04/07 11:24:01;;;;;;;10.60;7.00;;;;;;;13.23;31.23;99279.94;4980011;28;20030;-87
2023/04/07 11:26:26;;;;;;;8.02;5.80;;;;;;;13.32;31.59;99288.22;4978721;28;20101;-87
2023/04/07 11:28:53;;;;;;;10.38;5.22;;;;;;;13.66;30.49;99271.06;4987673;28;20034;-88
2023/04/07 11:31:23;;;;;;;7.57;5.03;;;;;;;13.76;31.29;99292.56;4967557;28;20488;-88
2023/04/07 11:33:59;;;;;;;8.00;5.03;;;;;;;13.64;29.84;99259.72;4986606;28;20022;-89
2023/04/07 11:36:31;;;;;;;10.50;4.88;;;;;;;13.94;30.04;99286.38;4997828;28;20045;-88
2023/04/07 11:38:57;;;;;;;7.05;5.03;;;;;;;13.95;30.18;99287.97;4993671;28;20136;-88
2023/04/07 11:41:22;;;;;;;7.80;4.80;;;;;;;13.98;30.07;99283.06;4978376;28;20065;-89
2023/04/07 11:43:49;;;;;;;6.88;5.20;;;;;;;14.03;30.36;99297.34;4985989;28;20388;-89
2023/04/07 11:46:16;;;;;;;8.15;4.93;;;;;;;14.05;30.12;99299.72;5008516;28;20539;-87
2023/04/07 11:48:43;;;;;;;7.07;5.05;;;;;;;13.87;30.14;99280.50;4968042;28;20051;-88